Time;durP1;ratioP1;P1;durP2;ratioP2;P2;SDS_P1;SDS_P2;PMS_P1;PMS_P2;Temp;Humidity;BMP_temperature;BMP_pressure;BME280_temperature;BME280_humidity;BME280_pressure;Samples;Min_cycle;Max_cycle;Signal;HPM_P1;HPM_P2
2023/12/06 00:00:40;;;;;;;45.58;30.20;;;;;;;3.30;68.77;99708.12;4454719;32;34545;-78
2023/12/06 00:03:10;;;;;;;58.03;33.40;;;;;;;3.36;68.82;99717.47;4454407;32;34286;-78
2023/12/06 00:05:40;;;;;;;52.33;32.42;;;;;;;2.71;70.82;99717.53;4454439;32;34019;-78
2023/12/06 00:08:09;;;;;;;51.33;32.13;;;;;;;3.16;69.57;99715.72;4454730;32;34261;-78
2023/12/06 00:10:39;;;;;;;49.90;32.70;;;;;;;3.20;69.18;99718.13;4454475;32;33912;-78
2023/12/06 00:13:08;;;;;;;46.30;31.67;;;;;;;3.19;69.60;99712.97;4454562;32;34045;-78
2023/12/06 00:15:38;;;;;;;50.15;34.95;;;;;;;3.27;68.94;99716.12;4453850;32;34512;-78
2023/12/06 00:18:07;;;;;;;50.90;30.52;;;;;;;3.27;69.35;99712.66;4455111;32;48807;-78
2023/12/06 00:20:36;;;;;;;50.78;30.25;;;;;;;3.07;69.80;99713.47;4455459;32;34471;-78
2023/12/06 00:23:06;;;;;;;50.45;30.98;;;;;;;2.92;70.38;99714.97;4454709;32;33871;-78
2023/12/06 00:25:35;;;;;;;50.17;32.05;;;;;;;3.01;70.39;99709.38;4455508;32;34109;-78
2023/12/06 00:28:05;;;;;;;46.30;29.40;;;;;;;3.40;69.00;99704.19;4455487;32;34045;-78
2023/12/06 00:30:36;;;;;;;49.70;32.92;;;;;;;3.40;68.83;99695.47;4441389;32;31717;-78
2023/12/06 00:33:07;;;;;;;52.72;31.70;;;;;;;3.40;69.12;99703.34;4454270;32;49433;-78
2023/12/06 00:35:36;;;;;;;55.33;34.55;;;;;;;3.23;69.64;99704.06;4452503;32;34779;-78
2023/12/06 00:38:06;;;;;;;47.28;32.00;;;;;;;2.92;70.42;99705.34;4455097;32;33739;-78
2023/12/06 00:40:35;;;;;;;45.85;29.60;;;;;;;3.26;69.12;99697.88;4455160;32;33435;-78
2023/12/06 00:43:06;;;;;;;46.05;29.83;;;;;;;3.15;69.71;99685.22;4454857;32;34439;-78
2023/12/06 00:45:35;;;;;;;54.45;32.83;;;;;;;3.35;68.99;99690.44;4454868;32;34041;-78
2023/12/06 00:48:06;;;;;;;53.75;33.53;;;;;;;3.33;69.37;99681.81;4454564;32;49048;-78
2023/12/06 00:50:36;;;;;;;44.83;30.27;;;;;;;3.38;69.32;99689.47;4454645;32;33625;-78
2023/12/06 00:53:05;;;;;;;45.50;29.45;;;;;;;3.48;69.18;99687.28;4439747;32;33857;-78
2023/12/06 00:55:35;;;;;;;48.80;31.17;;;;;;;3.41;69.24;99684.97;4452320;32;34092;-78
2023/12/06 00:58:08;;;;;;;45.42;29.05;;;;;;;3.22;69.59;99685.81;4453381;32;34777;-78
2023/12/06 01:00:37;;;;;;;45.03;28.70;;;;;;;3.42;69.07;99680.56;4454556;32;33514;-78
2023/12/06 01:03:06;;;;;;;43.22;28.08;;;;;;;3.68;68.24;99687.25;4454175;32;50210;-78
2023/12/06 01:05:36;;;;;;;45.88;30.30;;;;;;;3.69;68.35;99679.34;4454668;32;34244;-78
2023/12/06 01:08:05;;;;;;;44.45;28.80;;;;;;;3.69;68.40;99686.38;4454520;32;34655;-78
2023/12/06 01:10:35;;;;;;;44.17;27.92;;;;;;;3.83;68.04;99680.50;4454615;32;34963;-78
2023/12/06 01:13:03;;;;;;;43.33;27.90;;;;;;;3.80;68.26;99683.25;4439596;32;32588;-79
2023/12/06 01:15:34;;;;;;;48.03;29.20;;;;;;;3.83;68.21;99677.88;4452582;32;34867;-79
2023/12/06 01:18:04;;;;;;;49.22;29.15;;;;;;;3.82;68.34;99674.41;4453942;32;35211;-79
2023/12/06 01:20:38;;;;;;;41.55;27.75;;;;;;;3.95;67.98;99677.31;4453917;32;33511;-78
2023/12/06 01:23:07;;;;;;;;;;;;;;;4.04;67.72;99671.66;4453311;32;34018;-78
2023/12/06 01:25:36;;;;;;;41.95;26.52;;;;;;;4.42;66.23;99666.37;4453465;32;34814;-78
2023/12/06 01:28:05;;;;;;;40.95;26.10;;;;;;;4.37;66.24;99668.38;4453351;32;34482;-78
2023/12/06 01:30:36;;;;;;;45.35;29.05;;;;;;;4.44;65.74;99664.56;4453265;32;33565;-78
2023/12/06 01:33:06;;;;;;;42.75;27.17;;;;;;;4.09;66.96;99664.44;4452469;32;48886;-78
2023/12/06 01:35:35;;;;;;;41.92;27.33;;;;;;;4.08;67.24;99659.25;4451042;32;34789;-78
2023/12/06 01:38:05;;;;;;;43.70;26.33;;;;;;;4.35;66.01;99650.09;4453018;32;35006;-78
2023/12/06 01:40:36;;;;;;;44.25;28.83;;;;;;;4.43;65.78;99652.34;4452755;32;34216;-78
2023/12/06 01:43:05;;;;;;;43.63;28.13;;;;;;;4.32;65.75;99660.75;4452445;32;33914;-78
2023/12/06 01:45:36;;;;;;;44.25;29.25;;;;;;;4.24;66.30;99659.38;4453113;32;33524;-78
2023/12/06 01:48:07;;;;;;;41.70;27.75;;;;;;;4.28;66.31;99647.84;4452372;32;49257;-78
2023/12/06 01:50:38;;;;;;;43.25;28.92;;;;;;;4.09;66.95;99650.47;4452635;32;33766;-78
2023/12/06 01:53:08;;;;;;;44.28;27.42;;;;;;;4.02;67.21;99647.28;4452312;32;34321;-78
2023/12/06 01:55:37;;;;;;;45.25;27.70;;;;;;;3.99;67.61;99641.34;4450404;32;34774;-78
2023/12/06 01:58:08;;;;;;;42.42;28.77;;;;;;;4.09;67.51;99646.09;4452663;32;33875;-79
2023/12/06 02:00:41;;;;;;;43.25;27.58;;;;;;;4.04;67.67;99645.47;4452780;32;34032;-78
2023/12/06 02:03:13;;;;;;;41.58;27.77;;;;;;;4.24;67.07;99636.66;4452470;32;34000;-78
2023/12/06 02:05:43;;;;;;;41.53;26.83;;;;;;;4.36;66.39;99638.69;4438156;32;32192;-78
2023/12/06 02:08:12;;;;;;;42.60;25.27;;;;;;;3.87;67.43;99635.72;4452561;32;33620;-79
2023/12/06 02:10:42;;;;;;;38.80;26.60;;;;;;;4.12;66.99;99635.47;4452364;32;33713;-79
2023/12/06 02:13:11;;;;;;;40.05;27.35;;;;;;;4.18;66.89;99622.03;4451870;32;35191;-78
2023/12/06 02:15:41;;;;;;;43.10;28.98;;;;;;;3.83;67.98;99630.69;4450462;32;33940;-78
2023/12/06 02:18:11;;;;;;;43.47;28.77;;;;;;;4.06;67.37;99632.25;4452809;32;35224;-79
2023/12/06 02:20:41;;;;;;;44.60;25.98;;;;;;;4.02;67.59;99628.94;4452433;32;34491;-79
2023/12/06 02:23:12;;;;;;;39.17;26.48;;;;;;;4.04;67.62;99636.72;4437997;32;34376;-79
2023/12/06 02:25:43;;;;;;;37.13;26.13;;;;;;;3.72;68.83;99631.19;4452310;32;34755;-79
2023/12/06 02:28:13;;;;;;;41.03;27.42;;;;;;;3.68;68.72;99630.50;4452245;32;34066;-79
2023/12/06 02:30:43;;;;;;;37.78;26.80;;;;;;;3.87;68.35;99620.00;4452426;32;34837;-79
2023/12/06 02:33:12;;;;;;;43.28;28.98;;;;;;;3.92;68.21;99630.31;4452325;32;33866;-79
2023/12/06 02:35:47;;;;;;;44.88;28.40;;;;;;;3.75;68.42;99623.19;4450331;32;34037;-79
2023/12/06 02:38:21;;;;;;;39.25;27.50;;;;;;;4.04;67.78;99624.47;4452298;32;34184;-79
2023/12/06 02:40:53;;;;;;;40.05;27.17;;;;;;;3.61;68.96;99615.97;4452395;32;33896;-79
2023/12/06 02:43:24;;;;;;;;;;;;;;;3.73;68.86;99619.81;4452135;32;33623;-79
2023/12/06 02:45:54;;;;;;;42.33;26.20;;;;;;;3.88;68.26;99618.22;4437922;32;34596;-79
2023/12/06 02:48:24;;;;;;;40.53;27.17;;;;;;;4.00;67.82;99612.44;4438332;32;32419;-79
2023/12/06 02:50:53;;;;;;;41.67;28.38;;;;;;;3.88;68.33;99613.88;4452170;32;34450;-79
2023/12/06 02:53:23;;;;;;;38.63;26.33;;;;;;;3.79;68.90;99613.41;4451765;32;33919;-79
2023/12/06 02:55:53;;;;;;;44.40;27.35;;;;;;;3.86;68.48;99613.06;4450221;32;34103;-79
2023/12/06 02:58:22;;;;;;;45.10;28.83;;;;;;;4.00;68.17;99612.44;4452328;32;33881;-79
2023/12/06 03:00:52;;;;;;;40.65;26.60;;;;;;;3.77;68.69;99610.88;4452035;32;34252;-78
2023/12/06 03:03:21;;;;;;;34.80;25.02;;;;;;;3.61;69.30;99615.13;4438115;32;32207;-79
2023/12/06 03:05:50;;;;;;;43.67;29.20;;;;;;;3.91;68.68;99612.84;4452069;32;33864;-78
2023/12/06 03:08:19;;;;;;;42.45;27.92;;;;;;;3.88;68.84;99612.97;4451941;32;34132;-79
2023/12/06 03:10:49;;;;;;;43.40;28.05;;;;;;;3.76;69.36;99608.31;4452145;32;34135;-78
2023/12/06 03:13:19;;;;;;;45.97;29.90;;;;;;;3.97;68.60;99611.72;4451752;32;33969;-79
2023/12/06 03:15:48;;;;;;;43.83;29.40;;;;;;;3.83;68.98;99612.34;4449897;32;33632;-79
2023/12/06 03:18:17;;;;;;;44.25;29.40;;;;;;;3.90;69.04;99611.16;4452596;32;35071;-79
2023/12/06 03:20:47;;;;;;;42.25;29.20;;;;;;;4.15;68.24;99600.34;4452344;32;33440;-79
2023/12/06 03:23:16;;;;;;;43.83;28.58;;;;;;;4.12;68.16;99609.25;4451084;32;35086;-79
2023/12/06 03:25:45;;;;;;;41.00;27.58;;;;;;;3.90;68.85;99609.38;4451952;32;34087;-79
2023/12/06 03:28:14;;;;;;;41.28;28.75;;;;;;;3.93;68.95;99605.78;4452027;32;34408;-79
2023/12/06 03:30:46;;;;;;;40.58;29.95;;;;;;;4.01;68.54;99610.66;4451963;32;33808;-78
2023/12/06 03:33:15;;;;;;;41.75;28.42;;;;;;;3.22;71.18;99615.97;4451858;32;33621;-79
2023/12/06 03:35:47;;;;;;;43.60;29.48;;;;;;;3.26;71.20;99614.06;4450088;32;34067;-79
2023/12/06 03:38:16;;;;;;;42.95;28.05;;;;;;;3.42;70.69;99615.09;4437668;32;32365;-79
2023/12/06 03:40:45;;;;;;;39.38;25.45;;;;;;;3.40;70.60;99619.53;4451924;32;33262;-79
2023/12/06 03:43:15;;;;;;;44.50;28.65;;;;;;;3.43;70.71;99616.78;4451839;32;33495;-78
2023/12/06 03:45:46;;;;;;;35.75;25.83;;;;;;;3.50;70.42;99610.38;4451740;32;34060;-78
2023/12/06 03:48:18;;;;;;;38.72;24.90;;;;;;;3.55;70.12;99612.78;4452057;32;33701;-79
2023/12/06 03:50:47;;;;;;;41.10;25.45;;;;;;;3.65;70.16;99604.44;4451893;32;33536;-79
2023/12/06 03:53:16;;;;;;;34.53;23.15;;;;;;;3.75;70.09;99610.09;4451318;32;33958;-79
2023/12/06 03:55:45;;;;;;;36.88;23.40;;;;;;;3.56;70.64;99607.44;4449598;32;33728;-79
2023/12/06 03:58:15;;;;;;;40.50;25.25;;;;;;;3.76;70.14;99610.94;4452017;32;34735;-78
2023/12/06 04:00:46;;;;;;;40.35;26.60;;;;;;;3.47;71.11;99601.78;4451957;32;34254;-79
2023/12/06 04:03:16;;;;;;;42.13;26.00;;;;;;;3.72;70.43;99599.75;4451869;32;34560;-79
2023/12/06 04:05:45;;;;;;;35.22;23.80;;;;;;;4.29;68.36;99602.34;4437283;32;33932;-79
2023/12/06 04:08:14;;;;;;;32.40;23.17;;;;;;;4.21;68.58;99600.06;4451744;32;34348;-79
2023/12/06 04:10:43;;;;;;;35.50;22.90;;;;;;;4.26;68.36;99603.31;4451604;32;33579;-78
2023/12/06 04:13:13;;;;;;;36.22;23.30;;;;;;;4.21;68.54;99609.72;4450962;32;34519;-79
2023/12/06 04:15:43;;;;;;;34.20;23.80;;;;;;;4.14;68.80;99610.00;4449753;32;33567;-78
2023/12/06 04:18:14;;;;;;;34.47;22.23;;;;;;;4.16;68.73;99609.94;4451945;32;35273;-79
2023/12/06 04:20:43;;;;;;;36.38;24.98;;;;;;;4.05;68.99;99610.44;4451354;32;34265;-79
2023/12/06 04:23:13;;;;;;;37.50;23.67;;;;;;;4.03;68.97;99612.28;4451555;32;35179;-78
2023/12/06 04:25:42;;;;;;;36.40;24.25;;;;;;;4.15;68.69;99605.59;4451422;32;34099;-79
2023/12/06 04:28:14;;;;;;;35.80;23.15;;;;;;;4.17;68.60;99607.25;4451374;32;34052;-79
2023/12/06 04:30:44;;;;;;;32.72;22.50;;;;;;;4.11;68.94;99610.13;4451495;32;33799;-79
2023/12/06 04:33:15;;;;;;;36.67;23.50;;;;;;;4.13;68.81;99600.44;4451479;32;33664;-79
2023/12/06 04:35:44;;;;;;;34.30;22.45;;;;;;;4.29;68.39;99597.09;4448169;32;33986;-78
2023/12/06 04:38:16;;;;;;;37.78;25.10;;;;;;;4.27;68.36;99598.91;4451519;32;33894;-79
2023/12/06 04:40:46;;;;;;;38.40;23.75;;;;;;;4.52;67.33;99588.09;4437140;32;32997;-79
2023/12/06 04:43:17;;;;;;;35.88;23.85;;;;;;;4.37;67.84;99584.44;4451047;32;33901;-78
2023/12/06 04:45:47;;;;;;;42.10;26.17;;;;;;;4.24;68.21;99593.81;4436892;32;33350;-78
2023/12/06 04:48:17;;;;;;;59.42;36.67;;;;;;;3.99;68.51;99599.38;4451685;32;34690;-79
2023/12/06 04:50:47;;;;;;;75.28;44.58;;;;;;;4.45;67.20;99600.66;4451201;32;33404;-79
2023/12/06 04:53:16;;;;;;;59.63;37.42;;;;;;;4.31;67.65;99595.22;4450600;32;34702;-79
2023/12/06 04:55:46;;;;;;;33.47;24.17;;;;;;;4.06;68.49;99592.94;4449235;32;34137;-79
2023/12/06 04:58:16;;;;;;;30.67;20.85;;;;;;;4.26;68.25;99584.97;4451306;32;33841;-79
2023/12/06 05:00:47;;;;;;;34.95;23.05;;;;;;;4.20;68.34;99590.53;4451010;32;33105;-79
2023/12/06 05:03:19;;;;;;;30.02;21.35;;;;;;;4.14;68.57;99593.41;4451257;32;33533;-79
2023/12/06 05:05:48;;;;;;;26.83;18.55;;;;;;;3.86;69.58;99583.41;4450939;32;33653;-79
2023/12/06 05:08:17;;;;;;;24.83;18.50;;;;;;;3.60;70.38;99593.31;4451003;32;33850;-79
2023/12/06 05:10:47;;;;;;;24.48;16.62;;;;;;;3.76;70.32;99583.00;4450874;32;34833;-79
2023/12/06 05:13:16;;;;;;;23.85;18.85;;;;;;;3.83;70.41;99584.38;4450529;32;34689;-79
2023/12/06 05:15:46;;;;;;;29.08;18.35;;;;;;;3.66;70.75;99584.31;4448727;32;34060;-79
2023/12/06 05:18:19;;;;;;;22.85;17.33;;;;;;;3.37;72.29;99583.03;4451220;32;33631;-79
2023/12/06 05:20:49;;;;;;;22.65;17.10;;;;;;;3.82;70.79;99576.59;4450968;32;33994;-79
2023/12/06 05:23:18;;;;;;;27.75;18.02;;;;;;;4.15;69.67;99574.97;4450442;32;34231;-78
2023/12/06 05:25:48;;;;;;;24.17;16.90;;;;;;;3.72;71.09;99583.16;4450616;32;35214;-79
2023/12/06 05:28:17;;;;;;;23.92;17.10;;;;;;;3.89;70.86;99581.47;4435483;32;33615;-79
2023/12/06 05:30:46;;;;;;;24.90;16.48;;;;;;;4.07;70.28;99584.16;4435242;32;33490;-79
2023/12/06 05:33:17;;;;;;;22.95;15.50;;;;;;;4.05;70.18;99578.97;4420701;32;32467;-79
2023/12/06 05:35:49;;;;;;;23.90;17.53;;;;;;;3.99;70.22;99567.94;4445020;32;34166;-79
2023/12/06 05:38:18;;;;;;;27.05;19.67;;;;;;;3.91;70.80;99570.91;4451822;32;34136;-79
2023/12/06 05:40:47;;;;;;;38.80;25.62;;;;;;;4.41;68.86;99570.25;4451516;32;34234;-79
2023/12/06 05:43:17;;;;;;;42.90;28.42;;;;;;;4.21;69.42;99579.09;4451506;32;33782;-79
2023/12/06 05:45:46;;;;;;;29.00;22.50;;;;;;;4.05;70.19;99588.63;4452028;32;34703;-79
2023/12/06 05:48:17;;;;;;;32.60;23.05;;;;;;;4.29;69.25;99587.44;4453800;32;34525;-79
2023/12/06 05:50:46;;;;;;;32.47;20.77;;;;;;;4.16;69.65;99594.22;4453847;32;34647;-79
2023/12/06 05:53:19;;;;;;;26.27;18.77;;;;;;;4.18;69.73;99590.56;4453620;32;33655;-79
2023/12/06 05:55:49;;;;;;;33.58;21.27;;;;;;;4.18;70.00;99589.72;4451943;32;34746;-79
2023/12/06 05:58:18;;;;;;;32.15;19.62;;;;;;;4.23;69.37;99582.47;4453761;32;36066;-79
2023/12/06 06:00:48;;;;;;;28.77;19.15;;;;;;;4.24;69.57;99584.19;4454199;32;33866;-79
2023/12/06 06:03:17;;;;;;;27.33;19.95;;;;;;;4.18;69.80;99582.72;4453645;32;34006;-79
2023/12/06 06:05:47;;;;;;;28.65;20.58;;;;;;;4.29;69.36;99583.97;4453234;32;35143;-79
2023/12/06 06:08:16;;;;;;;31.58;22.02;;;;;;;4.41;68.89;99573.72;4453670;32;34184;-79
2023/12/06 06:10:47;;;;;;;28.55;20.05;;;;;;;4.33;69.16;99581.13;4453403;32;33428;-79
2023/12/06 06:13:16;;;;;;;31.52;19.80;;;;;;;4.31;69.37;99582.97;4438224;32;33289;-79
2023/12/06 06:15:46;;;;;;;32.17;22.75;;;;;;;4.40;68.92;99581.69;4437394;32;33379;-79
2023/12/06 06:18:15;;;;;;;31.60;23.45;;;;;;;4.31;69.06;99592.59;4439575;32;33138;-79
2023/12/06 06:20:44;;;;;;;29.12;21.05;;;;;;;3.88;70.77;99602.50;4438847;32;33797;-79
2023/12/06 06:23:14;;;;;;;32.28;23.98;;;;;;;3.54;72.01;99596.19;4438723;32;33289;-79
2023/12/06 06:25:43;;;;;;;31.73;22.17;;;;;;;4.18;70.03;99595.81;4453245;32;34221;-79
2023/12/06 06:28:15;;;;;;;43.08;24.87;;;;;;;4.36;69.08;99590.63;4453184;32;33714;-79
2023/12/06 06:30:45;;;;;;;39.35;23.60;;;;;;;4.37;69.05;99595.78;4439248;32;34251;-79
2023/12/06 06:33:14;;;;;;;33.10;22.65;;;;;;;4.21;69.74;99600.06;4453064;32;34268;-79
2023/12/06 06:35:43;;;;;;;29.10;20.58;;;;;;;4.28;69.60;99600.66;4451259;32;34732;-79
2023/12/06 06:38:13;;;;;;;32.85;20.88;;;;;;;4.45;69.16;99598.03;4453335;32;34062;-79
2023/12/06 06:40:42;;;;;;;30.42;21.90;;;;;;;4.10;70.37;99611.06;4453350;32;33444;-79
2023/12/06 06:43:14;;;;;;;31.70;21.90;;;;;;;4.37;69.70;99608.91;4452977;32;34529;-79
2023/12/06 06:45:43;;;;;;;27.55;19.20;;;;;;;4.46;69.38;99609.38;4452823;32;34561;-79
2023/12/06 06:48:12;;;;;;;33.67;19.98;;;;;;;4.50;69.29;99605.69;4453407;32;33904;-79
2023/12/06 06:50:42;;;;;;;31.77;20.73;;;;;;;4.56;69.24;99608.88;4453034;32;34552;-79
2023/12/06 06:53:11;;;;;;;33.88;21.05;;;;;;;4.68;68.79;99610.03;4452447;32;35545;-79
2023/12/06 06:55:40;;;;;;;45.90;20.77;;;;;;;4.93;67.77;99609.63;4451561;32;34035;-79
2023/12/06 06:58:10;;;;;;;31.77;18.92;;;;;;;4.65;68.61;99605.78;4453687;32;34070;-79
2023/12/06 07:00:41;;;;;;;32.33;20.52;;;;;;;4.70;68.60;99608.16;4453310;32;33355;-79
2023/12/06 07:03:11;;;;;;;36.85;22.60;;;;;;;4.57;69.07;99613.19;4453249;32;33443;-79
2023/12/06 07:05:45;;;;;;;32.45;19.77;;;;;;;4.73;68.65;99609.78;4453063;32;33714;-79
2023/12/06 07:08:14;;;;;;;26.50;19.35;;;;;;;4.61;68.83;99603.38;4452862;32;33807;-79
2023/12/06 07:10:47;;;;;;;33.33;18.60;;;;;;;4.97;67.97;99610.34;4452776;32;33527;-79
2023/12/06 07:13:16;;;;;;;40.20;20.42;;;;;;;4.92;67.83;99611.41;4452304;32;34688;-79
2023/12/06 07:15:49;;;;;;;34.72;19.50;;;;;;;4.83;68.27;99611.03;4436880;32;32052;-79
2023/12/06 07:18:19;;;;;;;31.70;19.90;;;;;;;4.73;68.59;99612.41;4454266;32;33780;-79
2023/12/06 07:20:52;;;;;;;33.25;20.33;;;;;;;4.85;68.36;99620.53;4453093;32;33287;-79
2023/12/06 07:23:21;;;;;;;31.10;20.75;;;;;;;4.81;68.58;99624.22;4452542;32;33495;-79
2023/12/06 07:25:51;;;;;;;29.50;19.35;;;;;;;4.46;69.63;99627.75;4452520;32;34878;-79
2023/12/06 07:28:21;;;;;;;29.70;19.62;;;;;;;4.63;69.32;99623.38;4452988;32;33804;-79
2023/12/06 07:30:52;;;;;;;32.50;19.65;;;;;;;4.45;69.60;99632.16;4437444;32;34800;-79
2023/12/06 07:33:21;;;;;;;30.65;17.27;;;;;;;4.63;69.26;99633.00;4437180;32;33826;-79
2023/12/06 07:35:50;;;;;;;30.67;19.90;;;;;;;4.52;69.71;99630.09;4446588;32;33872;-79
2023/12/06 07:38:20;;;;;;;34.40;21.23;;;;;;;4.78;68.80;99621.75;4452725;32;34144;-79
2023/12/06 07:40:49;;;;;;;104.35;51.63;;;;;;;4.76;68.98;99620.16;4452586;32;33774;-79
2023/12/06 07:43:19;;;;;;;81.80;47.75;;;;;;;4.68;69.32;99626.63;4452242;32;33935;-79
2023/12/06 07:45:48;;;;;;;48.00;29.08;;;;;;;4.97;68.50;99626.09;4453074;32;35331;-79
2023/12/06 07:48:18;;;;;;;47.40;27.13;;;;;;;4.92;68.37;99618.44;4438535;32;34243;-79
2023/12/06 07:50:47;;;;;;;45.42;25.77;;;;;;;4.87;68.65;99615.19;4452615;32;33826;-79
2023/12/06 07:53:16;;;;;;;62.45;33.85;;;;;;;4.83;68.54;99624.12;4452319;32;33961;-79
2023/12/06 07:55:46;;;;;;;54.78;33.53;;;;;;;4.68;69.00;99629.25;4450719;32;33873;-79
2023/12/06 07:58:17;;;;;;;51.13;29.98;;;;;;;4.75;68.54;99627.19;4452998;32;33910;-79
2023/12/06 08:00:46;;;;;;;50.67;27.42;;;;;;;4.36;69.33;99630.81;4453039;32;33024;-79
2023/12/06 08:03:16;;;;;;;41.08;26.12;;;;;;;4.61;68.93;99634.87;4452756;32;33808;-79
2023/12/06 08:05:49;;;;;;;36.65;24.35;;;;;;;4.60;68.84;99639.28;4452637;32;33597;-79
2023/12/06 08:08:18;;;;;;;39.72;23.40;;;;;;;4.60;68.81;99639.28;4452523;32;33592;-79
2023/12/06 08:10:48;;;;;;;36.45;23.85;;;;;;;4.83;68.34;99627.66;4438117;32;32120;-79
2023/12/06 08:13:18;;;;;;;35.97;24.05;;;;;;;4.84;68.34;99620.63;4451884;32;33744;-79
2023/12/06 08:15:48;;;;;;;29.10;21.23;;;;;;;4.91;68.27;99622.84;4436380;32;34606;-79
2023/12/06 08:18:18;;;;;;;31.33;21.95;;;;;;;4.89;68.56;99626.47;4438926;32;33452;-79
2023/12/06 08:20:50;;;;;;;30.42;20.77;;;;;;;4.98;68.19;99623.38;4452580;32;33647;-79
2023/12/06 08:23:21;;;;;;;28.25;20.48;;;;;;;4.93;68.12;99625.38;4452439;32;33740;-79
2023/12/06 08:25:50;;;;;;;33.05;22.65;;;;;;;4.79;68.52;99622.59;4452591;32;33819;-79
2023/12/06 08:28:20;;;;;;;28.02;20.73;;;;;;;4.94;68.61;99621.84;4452482;32;34180;-79
2023/12/06 08:30:51;;;;;;;33.05;22.87;;;;;;;5.07;68.18;99625.56;4452834;32;33971;-79
2023/12/06 08:33:23;;;;;;;30.08;21.58;;;;;;;5.17;67.97;99618.88;4453663;32;34197;-79
2023/12/06 08:35:54;;;;;;;36.13;22.05;;;;;;;5.25;67.93;99623.75;4451401;32;34027;-79
2023/12/06 08:38:23;;;;;;;35.95;23.17;;;;;;;5.35;67.51;99632.84;4453041;32;34714;-79
2023/12/06 08:40:53;;;;;;;35.72;23.77;;;;;;;5.23;67.86;99627.41;4452750;32;34129;-79
2023/12/06 08:43:24;;;;;;;34.85;23.25;;;;;;;5.42;67.73;99622.84;4452602;32;33990;-79
2023/12/06 08:45:53;;;;;;;33.03;22.80;;;;;;;5.32;67.97;99633.00;4452447;32;34885;-79
2023/12/06 08:48:22;;;;;;;33.28;22.02;;;;;;;5.52;67.41;99629.34;4453302;32;34678;-79
2023/12/06 08:50:54;;;;;;;39.10;23.83;;;;;;;5.45;67.64;99627.97;4452802;32;33532;-79
2023/12/06 08:53:23;;;;;;;34.65;23.70;;;;;;;5.42;68.11;99630.75;4452574;32;34037;-79
2023/12/06 08:55:56;;;;;;;32.78;23.40;;;;;;;5.71;67.33;99633.63;4444377;32;234742;-79
2023/12/06 08:58:25;;;;;;;32.53;20.35;;;;;;;5.64;67.43;99623.44;4453043;32;33922;-79
2023/12/06 09:00:57;;;;;;;31.92;22.00;;;;;;;5.57;67.81;99623.84;4438684;32;32044;-79
2023/12/06 09:03:26;;;;;;;28.30;21.77;;;;;;;5.85;66.51;99623.19;4438812;32;34233;-79
2023/12/06 09:05:57;;;;;;;35.28;20.90;;;;;;;5.82;66.59;99626.00;4453364;32;34110;-79
2023/12/06 09:08:27;;;;;;;28.52;19.95;;;;;;;5.68;66.91;99622.34;4452942;32;33877;-79
2023/12/06 09:10:56;;;;;;;33.13;21.05;;;;;;;5.59;67.35;99614.94;4453111;32;34672;-79
2023/12/06 09:13:26;;;;;;;33.75;21.00;;;;;;;5.58;67.48;99620.25;4453003;32;33770;-79
2023/12/06 09:15:58;;;;;;;31.67;21.08;;;;;;;5.65;67.03;99619.84;4451405;32;35685;-79
2023/12/06 09:18:27;;;;;;;31.87;21.60;;;;;;;5.75;66.94;99614.13;4453584;32;33874;-79
2023/12/06 09:20:58;;;;;;;28.77;21.48;;;;;;;5.60;67.38;99619.25;4454035;32;34519;-79
2023/12/06 09:23:28;;;;;;;32.47;21.60;;;;;;;5.54;67.78;99619.56;4455322;32;34629;-79
2023/12/06 09:25:57;;;;;;;35.00;22.87;;;;;;;5.51;68.08;99614.50;4455114;32;34337;-79
2023/12/06 09:28:26;;;;;;;57.50;50.95;;;;;;;5.61;67.84;99623.59;4455528;32;34194;-79
2023/12/06 09:30:57;;;;;;;49.38;41.50;;;;;;;5.67;67.86;99619.81;4455476;32;33799;-79
2023/12/06 09:33:27;;;;;;;38.28;27.20;;;;;;;5.86;67.31;99617.00;4455288;32;33730;-79
2023/12/06 09:35:58;;;;;;;43.05;27.98;;;;;;;5.94;67.17;99614.88;4454102;32;34729;-79
2023/12/06 09:38:27;;;;;;;44.17;32.38;;;;;;;5.77;68.24;99609.63;4455715;32;33851;-79
2023/12/06 09:40:57;;;;;;;41.10;28.87;;;;;;;5.64;68.79;99614.69;4455245;32;33799;-79
2023/12/06 09:43:26;;;;;;;51.33;32.35;;;;;;;6.00;67.39;99617.12;4455115;32;33750;-79
2023/12/06 09:45:55;;;;;;;46.60;32.53;;;;;;;5.54;68.91;99616.94;4455312;32;33997;-79
2023/12/06 09:48:27;;;;;;;54.63;37.55;;;;;;;5.58;68.79;99610.63;4455707;32;33794;-79
2023/12/06 09:50:59;;;;;;;52.33;32.42;;;;;;;5.23;69.72;99612.47;4454952;32;33198;-79
2023/12/06 09:53:30;;;;;;;47.25;34.55;;;;;;;5.26;69.36;99603.56;4454830;32;34024;-79
2023/12/06 09:56:01;;;;;;;50.22;32.63;;;;;;;5.30;69.20;99607.75;4452935;32;34333;-79
2023/12/06 09:58:30;;;;;;;45.97;32.00;;;;;;;5.20;69.56;99606.53;4455137;32;34407;-79
2023/12/06 10:01:01;;;;;;;53.72;36.95;;;;;;;5.28;69.30;99609.63;4455418;32;33581;-79
2023/12/06 10:03:31;;;;;;;60.80;42.60;;;;;;;5.47;68.91;99609.50;4455431;32;34116;-79
2023/12/06 10:06:03;;;;;;;46.88;33.97;;;;;;;5.41;68.87;99610.66;4454592;32;34534;-79
2023/12/06 10:08:33;;;;;;;60.92;39.65;;;;;;;5.70;67.93;99610.88;4455515;32;34142;-79
2023/12/06 10:11:04;;;;;;;110.70;80.10;;;;;;;4.33;72.42;99623.09;4454890;32;33904;-79
2023/12/06 10:13:35;;;;;;;72.20;47.50;;;;;;;4.30;72.68;99620.59;4454620;32;34898;-79
2023/12/06 10:16:13;;;;;;;47.05;33.17;;;;;;;4.92;70.83;99619.28;4453217;32;33913;-79
2023/12/06 10:18:48;;;;;;;81.05;49.28;;;;;;;4.84;71.29;99623.25;4454997;32;33749;-79
2023/12/06 10:21:20;;;;;;;50.78;34.80;;;;;;;4.68;71.28;99624.00;4454784;32;33760;-79
2023/12/06 10:23:54;;;;;;;46.17;31.70;;;;;;;4.66;71.74;99625.00;4454597;32;33850;-79
2023/12/06 10:26:27;;;;;;;50.58;31.35;;;;;;;4.90;70.93;99620.28;4454950;32;33671;-79
2023/12/06 10:28:58;;;;;;;41.28;30.42;;;;;;;5.13;70.19;99617.34;4454691;32;34658;-79
2023/12/06 10:31:27;;;;;;;51.60;34.20;;;;;;;5.21;70.08;99616.94;4454241;32;34226;-79
2023/12/06 10:33:58;;;;;;;54.10;32.03;;;;;;;5.38;69.73;99614.28;4453319;32;33760;-79
2023/12/06 10:36:31;;;;;;;47.33;32.78;;;;;;;5.33;69.79;99626.81;4453434;32;33979;-79
2023/12/06 10:39:02;;;;;;;45.30;31.73;;;;;;;5.24;69.84;99622.06;4454424;32;33949;-79
2023/12/06 10:41:32;;;;;;;46.55;32.88;;;;;;;5.53;69.02;99615.25;4454241;32;34256;-79
2023/12/06 10:44:03;;;;;;;47.72;32.15;;;;;;;5.59;68.78;99620.22;4439975;32;34080;-79
2023/12/06 10:46:33;;;;;;;50.00;31.92;;;;;;;5.54;68.75;99616.94;4453922;32;33651;-79
2023/12/06 10:49:04;;;;;;;46.58;34.10;;;;;;;5.56;68.57;99617.72;4454084;32;33655;-79
2023/12/06 10:51:38;;;;;;;52.33;34.65;;;;;;;5.47;68.86;99617.38;4433958;32;31986;-79
2023/12/06 10:54:09;;;;;;;57.25;41.15;;;;;;;5.31;69.33;99612.94;4450251;32;48914;-79
2023/12/06 10:56:43;;;;;;;53.45;37.53;;;;;;;5.18;70.09;99602.19;4452594;32;33681;-79
2023/12/06 10:59:14;;;;;;;50.97;32.92;;;;;;;5.44;69.33;99607.88;4454458;32;34220;-79
2023/12/06 11:01:43;;;;;;;56.20;40.08;;;;;;;5.20;70.02;99606.53;4453842;32;33993;-79
2023/12/06 11:04:16;;;;;;;50.83;33.40;;;;;;;5.41;69.41;99605.41;4453918;32;33980;-79
2023/12/06 11:06:58;;;;;;;47.35;32.42;;;;;;;4.80;71.40;99606.78;4454244;32;34057;-79
2023/12/06 11:09:35;;;;;;;48.60;33.80;;;;;;;5.12;70.70;99607.78;4454543;32;34493;-79
2023/12/06 11:12:21;;;;;;;48.33;32.15;;;;;;;5.25;70.43;99609.75;4453795;32;48943;-79
2023/12/06 11:15:06;;;;;;;50.50;32.00;;;;;;;5.18;70.90;99601.34;4452083;32;34226;-79
2023/12/06 11:17:45;;;;;;;40.50;29.35;;;;;;;5.29;70.45;99606.03;4454112;32;33943;-79
2023/12/06 11:20:15;;;;;;;35.38;27.20;;;;;;;5.58;69.34;99597.50;4455017;32;34959;-79
2023/12/06 11:22:44;;;;;;;40.05;27.25;;;;;;;5.28;69.94;99599.09;4439941;32;32676;-79
2023/12/06 11:25:26;;;;;;;39.25;27.02;;;;;;;5.52;69.21;99597.81;4454287;32;33339;-79
2023/12/06 11:27:58;;;;;;;39.03;27.98;;;;;;;5.65;68.75;99598.84;4454791;32;33739;-79
2023/12/06 11:30:29;;;;;;;44.53;27.10;;;;;;;5.60;68.90;99592.97;4454688;32;34714;-79
2023/12/06 11:32:59;;;;;;;38.45;25.77;;;;;;;5.82;68.43;99591.81;4453763;32;33714;-79
2023/12/06 11:35:28;;;;;;;70.80;37.88;;;;;;;5.83;68.45;99583.00;4452386;32;33811;-79
2023/12/06 11:37:58;;;;;;;73.65;42.90;;;;;;;5.90;68.25;99587.00;4454844;32;33837;-79
2023/12/06 11:40:28;;;;;;;80.80;51.60;;;;;;;5.98;68.14;99584.84;4454413;32;34062;-79